createdAt,value
2023-04-05T00:00:56.420Z,100.00
2023-04-05T00:03:23.139Z,100.00
2023-04-05T00:05:50.112Z,100.00
2023-04-05T00:08:26.896Z,100.00
2023-04-05T00:10:54.037Z,100.00
2023-04-05T00:13:27.558Z,100.00
2023-04-05T00:15:59.363Z,100.00
2023-04-05T00:18:25.831Z,100.00
2023-04-05T00:20:52.796Z,100.00
2023-04-05T00:23:20.704Z,100.00
2023-04-05T00:25:49.123Z,100.00
2023-04-05T00:28:15.806Z,100.00
2023-04-05T00:30:42.577Z,100.00
2023-04-05T00:33:09.315Z,100.00
2023-04-05T00:35:35.925Z,100.00
2023-04-05T00:38:02.870Z,100.00
2023-04-05T00:40:29.268Z,100.00
2023-04-05T00:42:55.798Z,100.00
2023-04-05T00:45:22.519Z,100.00
2023-04-05T00:47:49.014Z,100.00
2023-04-05T00:50:16.583Z,100.00
2023-04-05T00:52:44.176Z,100.00
2023-04-05T00:55:10.990Z,100.00
2023-04-05T00:57:39.326Z,100.00
2023-04-05T01:00:09.544Z,100.00
2023-04-05T01:02:45.771Z,100.00
2023-04-05T01:05:34.913Z,100.00
2023-04-05T01:08:04.096Z,100.00
2023-04-05T01:10:35.391Z,100.00
2023-04-05T01:13:02.207Z,100.00
2023-04-05T01:15:29.467Z,100.00
2023-04-05T01:17:57.674Z,100.00
2023-04-05T01:20:28.764Z,100.00
2023-04-05T01:23:14.821Z,100.00
2023-04-05T01:25:47.448Z,100.00
2023-04-05T01:28:37.310Z,100.00
2023-04-05T01:31:03.647Z,100.00
2023-04-05T01:34:05.941Z,100.00
2023-04-05T01:36:53.405Z,100.00
2023-04-05T01:39:20.727Z,100.00
2023-04-05T01:41:47.328Z,100.00
2023-04-05T01:44:13.985Z,100.00
2023-04-05T01:46:43.043Z,100.00
2023-04-05T01:49:09.611Z,100.00
2023-04-05T01:51:36.464Z,100.00
2023-04-05T01:54:02.790Z,100.00
2023-04-05T01:56:29.141Z,100.00
2023-04-05T01:58:55.866Z,100.00
2023-04-05T02:01:22.375Z,100.00
2023-04-05T02:03:48.954Z,100.00
2023-04-05T02:06:16.354Z,100.00
2023-04-05T02:08:42.791Z,100.00
2023-04-05T02:11:09.210Z,100.00
2023-04-05T02:13:35.837Z,100.00
2023-04-05T02:16:02.556Z,100.00
2023-04-05T02:18:32.188Z,100.00
2023-04-05T02:21:03.162Z,100.00
2023-04-05T02:23:30.811Z,100.00
2023-04-05T02:25:57.584Z,100.00
2023-04-05T02:28:23.893Z,100.00
2023-04-05T02:30:50.293Z,100.00
2023-04-05T02:33:16.704Z,100.00
2023-04-05T02:35:43.301Z,100.00
2023-04-05T02:38:09.901Z,100.00
2023-04-05T02:40:36.740Z,100.00
2023-04-05T02:43:03.529Z,100.00
2023-04-05T02:45:30.267Z,100.00
2023-04-05T02:47:57.036Z,100.00
2023-04-05T02:50:23.921Z,100.00
2023-04-05T02:52:50.920Z,100.00
2023-04-05T02:55:17.581Z,100.00
2023-04-05T02:57:46.372Z,100.00
2023-04-05T03:00:13.540Z,100.00
2023-04-05T03:02:39.995Z,100.00
2023-04-05T03:05:07.793Z,100.00
2023-04-05T03:07:35.777Z,100.00
2023-04-05T03:10:03.383Z,100.00
2023-04-05T03:12:30.185Z,100.00
2023-04-05T03:14:56.531Z,100.00
2023-04-05T03:17:22.979Z,100.00
2023-04-05T03:19:49.382Z,100.00
2023-04-05T03:22:16.191Z,100.00
2023-04-05T03:24:42.832Z,100.00
2023-04-05T03:27:09.292Z,100.00
2023-04-05T03:29:35.943Z,100.00
2023-04-05T03:32:02.600Z,100.00
2023-04-05T03:34:30.900Z,100.00
2023-04-05T03:39:27.233Z,100.00
2023-04-05T03:41:53.763Z,100.00
2023-04-05T03:44:20.693Z,100.00
2023-04-05T03:46:47.125Z,100.00
2023-04-05T03:49:13.847Z,100.00
2023-04-05T03:51:40.237Z,100.00
2023-04-05T03:54:09.745Z,100.00
2023-04-05T03:56:36.464Z,100.00
2023-04-05T03:59:03.719Z,100.00
2023-04-05T04:01:30.694Z,100.00
2023-04-05T04:03:57.198Z,100.00
2023-04-05T04:06:26.889Z,100.00
2023-04-05T04:08:53.563Z,100.00
2023-04-05T04:11:20.041Z,100.00
2023-04-05T04:13:46.559Z,100.00
2023-04-05T04:16:13.478Z,100.00
2023-04-05T04:18:40.247Z,100.00
2023-04-05T04:21:07.238Z,100.00
2023-04-05T04:23:34.594Z,100.00
2023-04-05T04:26:01.894Z,100.00
2023-04-05T04:28:29.210Z,100.00
2023-04-05T04:30:55.688Z,100.00
2023-04-05T04:33:22.120Z,100.00
2023-04-05T04:35:48.618Z,100.00
2023-04-05T04:38:19.048Z,100.00
2023-04-05T04:40:48.707Z,100.00
2023-04-05T04:43:17.513Z,100.00
2023-04-05T04:45:48.376Z,100.00
2023-04-05T04:48:16.911Z,100.00
2023-04-05T04:50:47.763Z,100.00
2023-04-05T04:53:18.241Z,100.00
2023-04-05T04:55:44.972Z,100.00
2023-04-05T04:58:13.016Z,100.00
2023-04-05T05:00:41.008Z,100.00
2023-04-05T05:03:08.656Z,100.00
2023-04-05T05:05:35.319Z,100.00
2023-04-05T05:08:02.028Z,100.00
2023-04-05T05:10:28.677Z,100.00
2023-04-05T05:12:55.170Z,100.00
2023-04-05T05:15:21.861Z,100.00
2023-04-05T05:17:53.229Z,100.00
2023-04-05T05:20:19.860Z,100.00
2023-04-05T05:22:46.669Z,100.00
2023-04-05T05:25:13.242Z,100.00
2023-04-05T05:27:39.674Z,100.00
2023-04-05T05:30:10.116Z,100.00
2023-04-05T05:32:42.014Z,100.00
2023-04-05T05:35:09.165Z,100.00
2023-04-05T05:37:36.730Z,100.00
2023-04-05T05:40:05.166Z,100.00
2023-04-05T05:42:34.571Z,100.00
2023-04-05T05:45:03.468Z,100.00
2023-04-05T05:47:29.935Z,100.00
2023-04-05T05:49:56.555Z,100.00
2023-04-05T05:52:22.986Z,100.00
2023-04-05T05:54:49.488Z,100.00
2023-04-05T05:57:16.013Z,100.00
2023-04-05T05:59:45.553Z,100.00
2023-04-05T06:02:12.131Z,100.00
2023-04-05T06:04:38.585Z,100.00
2023-04-05T06:07:05.038Z,100.00
2023-04-05T06:09:34.034Z,100.00
2023-04-05T06:12:01.291Z,100.00
2023-04-05T06:14:29.814Z,100.00
2023-04-05T06:16:56.672Z,100.00
2023-04-05T06:19:23.333Z,100.00
2023-04-05T06:21:49.934Z,100.00
2023-04-05T06:24:17.344Z,100.00
2023-04-05T06:26:44.066Z,100.00
2023-04-05T06:29:10.981Z,100.00
2023-04-05T06:31:39.577Z,100.00
2023-04-05T06:34:06.435Z,100.00
2023-04-05T06:36:34.512Z,100.00
2023-04-05T06:39:01.671Z,100.00
2023-04-05T06:41:28.315Z,100.00
2023-04-05T06:43:55.607Z,100.00
2023-04-05T06:46:22.590Z,100.00
2023-04-05T06:48:50.414Z,100.00
2023-04-05T06:51:17.072Z,100.00
2023-04-05T06:53:43.602Z,100.00
2023-04-05T06:56:10.321Z,100.00
2023-04-05T06:58:36.770Z,100.00
2023-04-05T07:01:04.144Z,100.00
2023-04-05T07:03:31.105Z,100.00
2023-04-05T07:05:59.465Z,100.00
2023-04-05T07:08:26.815Z,100.00
2023-04-05T07:10:53.575Z,100.00
2023-04-05T07:13:21.535Z,100.00
2023-04-05T07:15:48.290Z,100.00
2023-04-05T07:18:20.329Z,100.00
2023-04-05T07:20:48.188Z,100.00
2023-04-05T07:23:15.027Z,100.00
2023-04-05T07:25:41.773Z,100.00
2023-04-05T07:28:08.330Z,100.00
2023-04-05T07:30:36.497Z,100.00
2023-04-05T07:33:02.973Z,100.00
2023-04-05T07:35:30.207Z,100.00
2023-04-05T07:37:56.727Z,100.00
2023-04-05T07:40:23.364Z,100.00
2023-04-05T07:42:49.921Z,100.00
2023-04-05T07:45:16.505Z,100.00
2023-04-05T07:47:43.062Z,100.00
2023-04-05T07:50:11.766Z,100.00
2023-04-05T07:52:38.398Z,100.00
2023-04-05T07:55:05.038Z,100.00
2023-04-05T07:57:32.265Z,100.00
2023-04-05T07:59:58.828Z,100.00
2023-04-05T08:02:25.676Z,100.00
2023-04-05T08:04:52.300Z,100.00
2023-04-05T08:07:19.014Z,100.00
2023-04-05T08:09:46.139Z,100.00
2023-04-05T08:12:12.716Z,100.00
2023-04-05T08:14:39.047Z,100.00
2023-04-05T08:17:05.665Z,100.00
2023-04-05T08:19:32.147Z,100.00
2023-04-05T08:21:58.785Z,100.00
2023-04-05T08:24:26.830Z,100.00
2023-04-05T08:26:53.355Z,100.00
2023-04-05T08:29:20.181Z,100.00
2023-04-05T08:31:46.944Z,100.00
2023-04-05T08:34:13.292Z,100.00
2023-04-05T08:36:39.948Z,100.00
2023-04-05T08:39:06.501Z,100.00
2023-04-05T08:41:36.773Z,100.00
2023-04-05T08:44:05.615Z,100.00
2023-04-05T08:46:33.708Z,100.00
2023-04-05T08:49:02.090Z,100.00
2023-04-05T08:51:29.083Z,100.00
2023-04-05T08:53:55.705Z,100.00
2023-04-05T08:56:26.142Z,100.00
2023-04-05T08:59:06.216Z,100.00
2023-04-05T09:01:33.566Z,100.00
2023-04-05T09:04:01.711Z,100.00
2023-04-05T09:06:28.809Z,100.00
2023-04-05T09:08:58.910Z,100.00
2023-04-05T09:11:25.675Z,100.00
2023-04-05T09:13:54.688Z,100.00
2023-04-05T09:16:21.423Z,100.00
2023-04-05T09:18:49.164Z,100.00
2023-04-05T09:21:17.524Z,100.00
2023-04-05T09:23:56.712Z,100.00
2023-04-05T09:26:24.569Z,100.00
2023-04-05T09:28:51.120Z,100.00
2023-04-05T09:31:36.387Z,100.00
2023-04-05T09:34:04.107Z,100.00
2023-04-05T09:36:33.329Z,100.00
2023-04-05T09:39:09.431Z,100.00
2023-04-05T09:41:36.342Z,100.00
2023-04-05T09:44:02.907Z,100.00
2023-04-05T09:46:31.601Z,100.00
2023-04-05T09:48:58.383Z,100.00
2023-04-05T09:51:31.554Z,100.00
2023-04-05T09:54:02.240Z,100.00
2023-04-05T09:56:29.858Z,100.00
2023-04-05T09:59:06.317Z,100.00
2023-04-05T10:01:33.367Z,100.00
2023-04-05T10:04:00.403Z,100.00
2023-04-05T10:06:35.136Z,100.00
2023-04-05T10:09:02.239Z,100.00
2023-04-05T10:11:29.144Z,100.00
2023-04-05T10:13:56.226Z,100.00
2023-04-05T10:16:26.574Z,100.00
2023-04-05T10:18:54.182Z,100.00
2023-04-05T10:21:22.550Z,100.00
2023-04-05T10:23:55.225Z,100.00
2023-04-05T10:26:29.145Z,100.00
2023-04-05T10:29:01.252Z,100.00
2023-04-05T10:31:37.162Z,100.00
2023-04-05T10:34:09.033Z,100.00
2023-04-05T10:36:40.451Z,100.00
2023-04-05T10:39:09.971Z,100.00
2023-04-05T10:41:53.771Z,100.00
2023-04-05T10:44:26.439Z,100.00
2023-04-05T10:46:55.140Z,100.00
2023-04-05T10:49:28.505Z,100.00
2023-04-05T10:51:58.054Z,100.00
2023-04-05T10:54:25.808Z,100.00
2023-04-05T10:56:52.793Z,100.00
2023-04-05T10:59:20.523Z,97.92
2023-04-05T11:01:47.377Z,98.74
2023-04-05T11:04:15.269Z,100.00
2023-04-05T11:06:43.128Z,97.68
2023-04-05T11:09:17.066Z,98.40
2023-04-05T11:11:47.121Z,97.70
2023-04-05T11:14:25.820Z,98.08
2023-04-05T11:16:55.416Z,95.66
2023-04-05T11:19:40.825Z,90.83
2023-04-05T11:22:07.204Z,96.38
2023-04-05T11:24:54.045Z,97.10
2023-04-05T11:27:41.140Z,96.46
2023-04-05T11:30:08.098Z,93.11
2023-04-05T11:32:41.693Z,97.01
2023-04-05T11:35:13.772Z,93.98
2023-04-05T11:37:58.964Z,90.49
2023-04-05T11:40:27.464Z,96.48
2023-04-05T11:43:05.152Z,97.09
2023-04-05T11:45:33.827Z,100.00
2023-04-05T11:48:11.008Z,96.19
2023-04-05T11:50:38.617Z,94.27
2023-04-05T11:53:08.655Z,90.46
2023-04-05T11:55:35.270Z,91.73
2023-04-05T11:58:02.036Z,88.00
2023-04-05T12:00:28.633Z,85.06
2023-04-05T12:02:58.307Z,86.46
2023-04-05T12:05:25.007Z,89.51
2023-04-05T12:07:54.670Z,86.29
2023-04-05T12:10:21.635Z,89.95
2023-04-05T12:12:49.116Z,90.14
2023-04-05T12:15:19.120Z,85.70
2023-04-05T12:17:54.472Z,85.87
2023-04-05T12:20:22.630Z,87.41
2023-04-05T12:22:50.182Z,81.78
2023-04-05T12:25:17.110Z,79.60
2023-04-05T12:27:43.662Z,84.45
2023-04-05T12:30:10.236Z,84.01
2023-04-05T12:32:46.849Z,87.92
2023-04-05T12:35:19.644Z,85.35
2023-04-05T12:37:47.020Z,86.03
2023-04-05T12:40:14.070Z,90.17
2023-04-05T12:42:41.171Z,82.79
2023-04-05T12:45:12.622Z,82.90
2023-04-05T12:47:58.999Z,87.23
2023-04-05T12:50:27.958Z,82.10
2023-04-05T12:52:54.490Z,81.25
2023-04-05T12:55:21.707Z,82.15
2023-04-05T12:57:52.498Z,83.25
2023-04-05T13:00:21.588Z,86.27
2023-04-05T13:02:53.740Z,84.70
2023-04-05T13:05:24.294Z,86.63
2023-04-05T13:07:51.158Z,87.14
2023-04-05T13:10:21.467Z,86.97
2023-04-05T13:12:48.390Z,89.98
2023-04-05T13:15:15.722Z,88.75
2023-04-05T13:17:45.649Z,89.47
2023-04-05T13:20:12.311Z,87.52
2023-04-05T13:22:42.361Z,87.19
2023-04-05T13:25:09.472Z,86.69
2023-04-05T13:27:36.730Z,86.66
2023-04-05T13:30:04.068Z,86.00
2023-04-05T13:32:30.682Z,86.03
2023-04-05T13:34:57.300Z,84.35
2023-04-05T13:37:24.202Z,84.52
2023-04-05T13:39:51.033Z,84.81
2023-04-05T13:42:17.561Z,89.91
2023-04-05T13:44:44.275Z,92.32
2023-04-05T13:47:10.961Z,92.47
2023-04-05T13:49:37.549Z,94.63
2023-04-05T13:52:04.119Z,91.28
2023-04-05T13:54:30.859Z,92.31
2023-04-05T13:56:59.354Z,93.94
2023-04-05T13:59:26.155Z,91.68
2023-04-05T14:01:52.898Z,93.46
2023-04-05T14:07:04.998Z,92.77
2023-04-05T14:09:32.582Z,96.10
2023-04-05T14:12:01.202Z,95.01
2023-04-05T14:14:27.886Z,94.85
2023-04-05T14:16:54.509Z,95.16
2023-04-05T14:19:24.427Z,95.58
2023-04-05T14:21:51.306Z,95.50
2023-04-05T14:24:17.841Z,95.57
2023-04-05T14:26:49.766Z,95.21
2023-04-05T14:29:17.331Z,95.08
2023-04-05T14:31:44.488Z,94.89
2023-04-05T14:34:11.418Z,94.89
2023-04-05T14:36:38.228Z,94.27
2023-04-05T14:39:04.802Z,93.28
2023-04-05T14:41:31.466Z,94.42
2023-04-05T14:43:58.156Z,96.36
2023-04-05T14:46:29.440Z,95.94
2023-04-05T14:48:56.042Z,97.64
2023-04-05T14:51:22.542Z,96.23
2023-04-05T14:53:48.984Z,96.28
2023-04-05T14:56:15.450Z,98.86
2023-04-05T14:58:42.021Z,94.04
2023-04-05T15:01:10.428Z,95.43
2023-04-05T15:03:37.950Z,96.20
2023-04-05T15:06:05.148Z,96.21
2023-04-05T15:08:31.914Z,96.11
2023-04-05T15:10:58.784Z,95.01
2023-04-05T15:13:27.061Z,94.66
2023-04-05T15:15:53.893Z,94.23
2023-04-05T15:18:20.774Z,93.57
2023-04-05T15:20:50.076Z,93.44
2023-04-05T15:23:16.522Z,94.57
2023-04-05T15:25:43.621Z,94.48
2023-04-05T15:28:10.737Z,96.49
2023-04-05T15:30:37.793Z,94.61
2023-04-05T15:33:04.359Z,94.80
2023-04-05T15:35:31.265Z,95.64
2023-04-05T15:37:58.857Z,95.21
2023-04-05T15:40:25.424Z,96.14
2023-04-05T15:42:51.980Z,96.42
2023-04-05T15:45:18.570Z,96.57
2023-04-05T15:47:45.479Z,95.93
2023-04-05T15:50:12.318Z,96.55
2023-04-05T15:52:42.388Z,97.48
2023-04-05T15:55:08.900Z,98.01
2023-04-05T15:57:35.953Z,98.23
2023-04-05T16:00:03.608Z,99.03
2023-04-05T16:02:31.656Z,98.56
2023-04-05T16:05:01.936Z,97.90
2023-04-05T16:07:28.444Z,98.33
2023-04-05T16:09:55.056Z,98.45
2023-04-05T16:12:21.568Z,98.97
2023-04-05T16:14:48.085Z,98.85
2023-04-05T16:17:14.735Z,99.75
2023-04-05T16:19:41.338Z,99.77
2023-04-05T16:22:08.049Z,100.00
2023-04-05T16:24:36.868Z,100.00
2023-04-05T16:27:03.431Z,100.00
2023-04-05T16:29:29.922Z,100.00
2023-04-05T16:31:56.695Z,100.00
2023-04-05T16:34:23.284Z,100.00
2023-04-05T16:36:49.766Z,100.00
2023-04-05T16:39:16.283Z,100.00
2023-04-05T16:41:42.968Z,100.00
2023-04-05T16:44:09.765Z,100.00
2023-04-05T16:46:36.268Z,100.00
2023-04-05T16:49:02.852Z,100.00
2023-04-05T16:51:29.505Z,100.00
2023-04-05T16:53:56.106Z,100.00
2023-04-05T16:56:24.321Z,100.00
2023-04-05T16:58:52.087Z,100.00
2023-04-05T17:01:18.729Z,100.00
2023-04-05T17:03:48.311Z,100.00
2023-04-05T17:06:14.883Z,100.00
2023-04-05T17:08:41.631Z,100.00
2023-04-05T17:11:08.382Z,100.00
2023-04-05T17:13:34.781Z,100.00
2023-04-05T17:16:01.901Z,100.00
2023-04-05T17:18:29.177Z,100.00
2023-04-05T17:20:55.862Z,100.00
2023-04-05T17:23:23.577Z,100.00
2023-04-05T17:25:51.238Z,100.00
2023-04-05T17:28:17.640Z,100.00
2023-04-05T17:30:44.273Z,100.00
2023-04-05T17:33:11.397Z,100.00
2023-04-05T17:35:38.151Z,100.00
2023-04-05T17:38:04.869Z,100.00
2023-04-05T17:40:32.073Z,100.00
2023-04-05T17:43:01.004Z,100.00
2023-04-05T17:45:27.765Z,100.00
2023-04-05T17:47:54.236Z,100.00
2023-04-05T17:50:22.592Z,100.00
2023-04-05T17:52:51.289Z,100.00
2023-04-05T17:55:17.851Z,100.00
2023-04-05T17:57:44.388Z,100.00
2023-04-05T18:00:11.457Z,100.00
2023-04-05T18:02:38.483Z,100.00
2023-04-05T18:05:05.016Z,100.00
2023-04-05T18:07:34.746Z,100.00
2023-04-05T18:10:01.374Z,100.00
2023-04-05T18:12:28.347Z,100.00
2023-04-05T18:14:56.356Z,100.00
2023-04-05T18:17:22.972Z,100.00
2023-04-05T18:19:49.607Z,100.00
2023-04-05T18:22:16.737Z,100.00
2023-04-05T18:24:43.311Z,100.00
2023-04-05T18:27:10.619Z,100.00
2023-04-05T18:29:40.299Z,100.00
2023-04-05T18:32:07.524Z,100.00
2023-04-05T18:34:34.950Z,100.00
2023-04-05T18:37:01.960Z,100.00
2023-04-05T18:39:28.451Z,100.00
2023-04-05T18:41:55.129Z,100.00
2023-04-05T18:44:21.797Z,100.00
2023-04-05T18:46:49.884Z,100.00
2023-04-05T18:49:18.555Z,100.00
2023-04-05T18:51:45.399Z,100.00
2023-04-05T18:54:12.391Z,100.00
2023-04-05T18:56:39.125Z,100.00
2023-04-05T18:59:06.136Z,100.00
2023-04-05T19:01:32.836Z,100.00
2023-04-05T19:04:01.327Z,100.00
2023-04-05T19:06:28.267Z,100.00
2023-04-05T19:08:54.821Z,100.00
2023-04-05T19:11:22.109Z,100.00
2023-04-05T19:13:48.694Z,100.00
2023-04-05T19:16:17.811Z,100.00
2023-04-05T19:18:44.742Z,100.00
2023-04-05T19:21:11.488Z,100.00
2023-04-05T19:23:38.817Z,100.00
2023-04-05T19:26:05.932Z,100.00
2023-04-05T19:28:32.541Z,100.00
2023-04-05T19:30:59.226Z,100.00
2023-04-05T19:33:26.407Z,100.00
2023-04-05T19:35:53.133Z,100.00
2023-04-05T19:38:22.628Z,100.00
2023-04-05T19:40:49.253Z,100.00
2023-04-05T19:43:15.858Z,100.00
2023-04-05T19:45:42.506Z,100.00
2023-04-05T19:48:27.724Z,100.00
2023-04-05T19:50:56.316Z,100.00
2023-04-05T19:53:32.453Z,100.00
2023-04-05T19:55:59.022Z,100.00
2023-04-05T19:58:28.972Z,100.00
2023-04-05T20:00:55.842Z,100.00
2023-04-05T20:03:33.409Z,100.00
2023-04-05T20:06:06.205Z,100.00
2023-04-05T20:08:33.706Z,100.00
2023-04-05T20:11:00.524Z,100.00
2023-04-05T20:13:27.173Z,100.00
2023-04-05T20:15:54.324Z,100.00
2023-04-05T20:18:23.437Z,100.00
2023-04-05T20:20:51.868Z,100.00
2023-04-05T20:23:19.954Z,100.00
2023-04-05T20:25:49.854Z,100.00
2023-04-05T20:28:41.994Z,100.00
2023-04-05T20:31:10.365Z,100.00
2023-04-05T20:33:51.986Z,100.00
2023-04-05T20:36:20.033Z,100.00
2023-04-05T20:38:47.648Z,100.00
2023-04-05T20:41:14.799Z,100.00
2023-04-05T20:43:42.008Z,100.00
2023-04-05T20:46:09.420Z,100.00
2023-04-05T20:48:36.606Z,100.00
2023-04-05T20:51:05.011Z,100.00
2023-04-05T20:53:31.579Z,100.00
2023-04-05T20:55:59.454Z,100.00
2023-04-05T20:58:26.433Z,100.00
2023-04-05T21:00:53.097Z,100.00
2023-04-05T21:03:19.860Z,100.00
2023-04-05T21:05:46.811Z,100.00
2023-04-05T21:08:13.491Z,100.00
2023-04-05T21:10:40.249Z,100.00
2023-04-05T21:13:07.468Z,100.00
2023-04-05T21:15:35.258Z,100.00
2023-04-05T21:18:02.578Z,100.00
2023-04-05T21:20:38.309Z,100.00
2023-04-05T21:23:04.801Z,100.00
2023-04-05T21:25:31.974Z,100.00
2023-04-05T21:27:59.156Z,100.00
2023-04-05T21:30:26.430Z,100.00
2023-04-05T21:32:54.090Z,100.00
2023-04-05T21:35:22.504Z,100.00
2023-04-05T21:37:50.079Z,100.00
2023-04-05T21:40:16.745Z,100.00
2023-04-05T21:42:43.488Z,100.00
2023-04-05T21:45:10.697Z,100.00
2023-04-05T21:47:39.060Z,100.00
2023-04-05T21:50:06.228Z,100.00
2023-04-05T21:52:32.982Z,100.00
2023-04-05T21:54:59.523Z,100.00
2023-04-05T21:57:26.302Z,100.00
2023-04-05T21:59:52.745Z,100.00
2023-04-05T22:02:19.442Z,100.00
2023-04-05T22:04:46.019Z,100.00
2023-04-05T22:07:12.639Z,100.00
2023-04-05T22:09:39.307Z,100.00
2023-04-05T22:12:09.026Z,100.00
2023-04-05T22:14:36.011Z,100.00
2023-04-05T22:17:02.906Z,100.00
2023-04-05T22:19:29.830Z,100.00
2023-04-05T22:21:56.527Z,100.00
2023-04-05T22:24:24.307Z,100.00
2023-04-05T22:26:53.937Z,100.00
2023-04-05T22:29:23.644Z,100.00
2023-04-05T22:31:50.368Z,100.00
2023-04-05T22:34:16.986Z,100.00
2023-04-05T22:36:44.161Z,100.00
2023-04-05T22:39:11.363Z,100.00
2023-04-05T22:41:38.221Z,100.00
2023-04-05T22:44:05.170Z,100.00
2023-04-05T22:46:31.724Z,100.00
2023-04-05T22:48:58.708Z,100.00
2023-04-05T22:51:26.388Z,100.00
2023-04-05T22:53:53.065Z,100.00
2023-04-05T22:56:21.722Z,100.00
2023-04-05T22:58:49.776Z,100.00
2023-04-05T23:01:16.888Z,100.00
2023-04-05T23:03:43.583Z,100.00
2023-04-05T23:06:10.180Z,100.00
2023-04-05T23:08:36.811Z,100.00
2023-04-05T23:11:03.590Z,100.00
2023-04-05T23:13:30.162Z,100.00
2023-04-05T23:15:56.957Z,100.00
2023-04-05T23:18:23.808Z,100.00
2023-04-05T23:20:50.546Z,100.00
2023-04-05T23:23:17.289Z,100.00
2023-04-05T23:25:43.957Z,100.00
2023-04-05T23:28:10.576Z,100.00
2023-04-05T23:30:37.124Z,100.00
2023-04-05T23:33:03.804Z,100.00
2023-04-05T23:35:30.547Z,100.00
2023-04-05T23:37:57.171Z,100.00
2023-04-05T23:40:23.903Z,100.00
2023-04-05T23:42:50.923Z,100.00
2023-04-05T23:45:17.588Z,100.00
2023-04-05T23:47:44.312Z,100.00
2023-04-05T23:50:13.129Z,100.00
2023-04-05T23:52:39.566Z,100.00
2023-04-05T23:55:06.587Z,100.00
2023-04-05T23:57:33.093Z,100.00
